createdAt,value
2022-11-17T00:00:42.815Z,80.82
2022-11-17T00:03:15.786Z,80.19
2022-11-17T00:05:44.425Z,81.71
2022-11-17T00:08:12.333Z,79.97
2022-11-17T00:10:39.857Z,80.17
2022-11-17T00:13:28.888Z,80.11
2022-11-17T00:15:56.415Z,80.91
2022-11-17T00:18:42.404Z,80.20
2022-11-17T00:21:23.506Z,81.01
2022-11-17T00:23:51.192Z,80.77
2022-11-17T00:26:23.933Z,80.96
2022-11-17T00:28:56.066Z,80.59
2022-11-17T00:31:43.941Z,81.51
2022-11-17T00:34:15.603Z,81.00
2022-11-17T00:36:46.598Z,81.26
2022-11-17T00:39:16.434Z,81.45
2022-11-17T00:41:44.377Z,80.24
2022-11-17T00:44:12.283Z,81.36
2022-11-17T00:46:40.785Z,81.92
2022-11-17T00:49:10.176Z,79.86
2022-11-17T00:51:38.076Z,80.37
2022-11-17T00:54:07.475Z,80.73
2022-11-17T00:56:35.000Z,80.75
2022-11-17T00:59:02.633Z,79.81
2022-11-17T01:01:30.475Z,80.85
2022-11-17T01:04:04.563Z,79.76
2022-11-17T01:06:35.862Z,79.89
2022-11-17T01:09:11.228Z,80.18
2022-11-17T01:11:38.984Z,80.11
2022-11-17T01:14:06.650Z,79.27
2022-11-17T01:16:34.124Z,79.86
2022-11-17T01:19:02.896Z,80.93
2022-11-17T01:21:31.500Z,80.03
2022-11-17T01:24:01.117Z,79.76
2022-11-17T01:26:32.026Z,79.68
2022-11-17T01:29:01.178Z,79.46
2022-11-17T01:31:31.060Z,79.71
2022-11-17T01:33:59.016Z,79.39
2022-11-17T01:36:56.577Z,80.25
2022-11-17T01:39:25.400Z,80.27
2022-11-17T01:41:53.618Z,80.89
2022-11-17T01:44:36.512Z,81.44
2022-11-17T01:47:08.135Z,82.28
2022-11-17T01:49:35.831Z,82.42
2022-11-17T01:52:07.437Z,83.31
2022-11-17T01:54:40.389Z,82.81
2022-11-17T01:57:13.446Z,82.10
2022-11-17T01:59:48.934Z,82.92
2022-11-17T02:02:16.866Z,83.96
2022-11-17T02:04:49.813Z,83.11
2022-11-17T02:07:23.176Z,83.79
2022-11-17T02:09:52.792Z,83.00
2022-11-17T02:12:23.581Z,84.07
2022-11-17T02:14:51.702Z,83.31
2022-11-17T02:17:21.605Z,83.67
2022-11-17T02:20:11.270Z,83.39
2022-11-17T02:23:10.138Z,83.68
2022-11-17T02:25:49.821Z,82.76
2022-11-17T02:28:17.356Z,83.48
2022-11-17T02:31:06.714Z,83.62
2022-11-17T02:33:34.469Z,83.27
2022-11-17T02:36:10.990Z,82.88
2022-11-17T02:39:10.064Z,82.24
2022-11-17T02:41:54.288Z,82.72
2022-11-17T02:44:39.979Z,81.61
2022-11-17T02:47:23.516Z,81.61
2022-11-17T02:49:58.974Z,81.71
2022-11-17T02:52:29.944Z,83.30
2022-11-17T02:55:02.791Z,82.25
2022-11-17T02:57:35.208Z,82.50
2022-11-17T03:00:05.408Z,81.81
2022-11-17T03:02:57.333Z,82.79
2022-11-17T03:05:48.856Z,82.61
2022-11-17T03:08:44.003Z,83.19
2022-11-17T03:11:11.725Z,83.04
2022-11-17T03:14:04.541Z,82.94
2022-11-17T03:16:41.446Z,83.91
2022-11-17T03:19:19.749Z,82.02
2022-11-17T03:21:57.341Z,82.30
2022-11-17T03:24:32.733Z,82.07
2022-11-17T03:27:07.679Z,82.74
2022-11-17T03:29:39.000Z,83.39
2022-11-17T03:32:10.018Z,82.62
2022-11-17T03:34:44.232Z,82.38
2022-11-17T03:37:15.532Z,82.88
2022-11-17T03:39:51.394Z,83.32
2022-11-17T03:42:30.693Z,82.41
2022-11-17T03:45:03.355Z,81.15
2022-11-17T03:47:33.753Z,82.98
2022-11-17T03:50:09.444Z,82.09
2022-11-17T03:52:38.077Z,81.85
2022-11-17T03:55:06.557Z,82.33
2022-11-17T03:58:05.695Z,82.38
2022-11-17T04:00:36.705Z,82.85
2022-11-17T04:03:04.297Z,83.60
2022-11-17T04:05:31.905Z,82.79
2022-11-17T04:07:59.413Z,82.53
2022-11-17T04:10:27.001Z,83.19
2022-11-17T04:13:13.345Z,84.50
2022-11-17T04:15:56.304Z,82.05
2022-11-17T04:18:24.068Z,81.80
2022-11-17T04:20:54.000Z,84.02
2022-11-17T04:23:22.564Z,83.85
2022-11-17T04:26:11.259Z,83.79
2022-11-17T04:28:47.929Z,84.20
2022-11-17T04:31:17.005Z,83.79
2022-11-17T04:33:46.981Z,84.18
2022-11-17T04:36:17.470Z,85.08
2022-11-17T04:38:47.338Z,85.34
2022-11-17T04:41:34.668Z,84.62
2022-11-17T04:44:03.155Z,85.04
2022-11-17T04:46:32.277Z,84.80
2022-11-17T04:49:00.896Z,84.80
2022-11-17T04:51:29.770Z,84.48
2022-11-17T04:53:58.067Z,84.86
2022-11-17T04:56:26.938Z,84.69
2022-11-17T04:58:54.967Z,84.93
2022-11-17T05:01:23.659Z,85.22
2022-11-17T05:03:56.675Z,84.76
2022-11-17T05:06:38.008Z,83.66
2022-11-17T05:09:13.923Z,84.10
2022-11-17T05:12:01.346Z,83.98
2022-11-17T05:14:29.720Z,83.81
2022-11-17T05:17:10.547Z,83.73
2022-11-17T05:19:47.153Z,84.07
2022-11-17T05:22:35.896Z,83.31
2022-11-17T05:25:04.450Z,82.62
2022-11-17T05:27:33.954Z,82.23
2022-11-17T05:30:02.661Z,83.21
2022-11-17T05:32:31.419Z,83.15
2022-11-17T05:34:59.012Z,82.77
2022-11-17T05:37:26.636Z,83.19
2022-11-17T05:39:56.311Z,84.26
2022-11-17T05:42:23.947Z,84.49
2022-11-17T05:44:51.467Z,83.37
2022-11-17T05:47:18.999Z,82.20
2022-11-17T05:49:46.469Z,83.39
2022-11-17T05:52:14.051Z,83.03
2022-11-17T05:54:41.516Z,82.60
2022-11-17T05:57:14.348Z,83.55
2022-11-17T05:59:48.605Z,84.17
2022-11-17T06:02:38.724Z,83.13
2022-11-17T06:05:06.450Z,83.80
2022-11-17T06:07:36.805Z,83.37
2022-11-17T06:10:05.352Z,83.19
2022-11-17T06:12:32.840Z,83.42
2022-11-17T06:15:00.304Z,82.28
2022-11-17T06:17:40.722Z,83.25
2022-11-17T06:20:28.305Z,83.30
2022-11-17T06:23:00.532Z,82.98
2022-11-17T06:25:29.065Z,82.90
2022-11-17T06:27:58.268Z,83.36
2022-11-17T06:30:25.836Z,82.91
2022-11-17T06:32:53.625Z,83.98
2022-11-17T06:35:21.182Z,85.14
2022-11-17T06:37:48.760Z,84.16
2022-11-17T06:40:16.558Z,83.65
2022-11-17T06:43:02.299Z,83.27
2022-11-17T06:45:34.285Z,83.83
2022-11-17T06:48:02.326Z,82.80
2022-11-17T06:50:29.873Z,82.12
2022-11-17T06:53:08.536Z,78.42
2022-11-17T06:55:36.948Z,75.25
2022-11-17T06:58:07.662Z,73.37
2022-11-17T07:00:37.109Z,72.42
2022-11-17T07:03:09.760Z,69.74
2022-11-17T07:05:40.236Z,70.23
2022-11-17T07:08:09.594Z,69.68
2022-11-17T07:10:38.056Z,72.37
2022-11-17T07:13:05.636Z,75.41
2022-11-17T07:15:33.233Z,74.27
2022-11-17T07:18:00.878Z,68.27
2022-11-17T07:20:28.543Z,66.15
2022-11-17T07:23:00.210Z,62.11
2022-11-17T07:25:27.801Z,64.88
2022-11-17T07:28:00.005Z,68.65
2022-11-17T07:30:27.815Z,72.86
2022-11-17T07:32:55.453Z,73.34
2022-11-17T07:35:22.941Z,73.33
2022-11-17T07:37:50.597Z,74.72
2022-11-17T07:40:18.311Z,74.45
2022-11-17T07:42:49.984Z,74.64
2022-11-17T07:45:18.133Z,74.46
2022-11-17T07:47:45.667Z,74.34
2022-11-17T07:50:15.701Z,75.45
2022-11-17T07:52:43.212Z,74.69
2022-11-17T07:55:10.706Z,73.65
2022-11-17T07:57:38.209Z,72.31
2022-11-17T08:00:06.306Z,67.64
2022-11-17T08:02:40.528Z,66.05
2022-11-17T08:05:08.496Z,66.28
2022-11-17T08:07:36.057Z,65.69
2022-11-17T08:10:04.430Z,63.18
2022-11-17T08:12:31.987Z,65.22
2022-11-17T08:14:59.490Z,68.92
2022-11-17T08:17:27.612Z,68.56
2022-11-17T08:19:56.329Z,70.27
2022-11-17T08:22:24.168Z,71.06
2022-11-17T08:24:51.694Z,70.50
2022-11-17T08:27:19.186Z,68.58
2022-11-17T08:29:46.713Z,66.99
2022-11-17T08:32:14.190Z,66.40
2022-11-17T08:34:41.670Z,66.80
2022-11-17T08:37:09.468Z,68.67
2022-11-17T08:39:37.196Z,69.10
2022-11-17T08:42:04.671Z,70.96
2022-11-17T08:44:32.193Z,73.01
2022-11-17T08:46:59.758Z,70.60
2022-11-17T08:49:27.308Z,70.43
2022-11-17T08:51:54.837Z,70.36
2022-11-17T08:54:22.403Z,70.16
2022-11-17T08:56:50.073Z,69.70
2022-11-17T08:59:17.648Z,73.13
2022-11-17T09:01:45.401Z,72.21
2022-11-17T09:04:13.079Z,72.56
2022-11-17T09:06:40.606Z,71.69
2022-11-17T09:09:08.300Z,71.29
2022-11-17T09:11:35.866Z,72.58
2022-11-17T09:14:03.723Z,74.25
2022-11-17T09:16:31.177Z,72.40
2022-11-17T09:18:59.003Z,72.20
2022-11-17T09:21:27.686Z,72.84
2022-11-17T09:23:55.243Z,73.55
2022-11-17T09:26:22.917Z,73.80
2022-11-17T09:28:50.558Z,73.85
2022-11-17T09:31:20.879Z,73.83
2022-11-17T09:33:48.486Z,72.43
2022-11-17T09:36:16.971Z,72.35
2022-11-17T09:38:46.782Z,71.05
2022-11-17T09:41:40.722Z,70.04
2022-11-17T09:44:12.486Z,69.72
2022-11-17T09:46:46.145Z,68.14
2022-11-17T09:49:53.647Z,70.05
2022-11-17T09:52:36.192Z,69.83
2022-11-17T09:55:09.516Z,69.15
2022-11-17T09:57:48.687Z,69.94
2022-11-17T10:00:21.214Z,70.83
2022-11-17T10:02:50.710Z,69.64
2022-11-17T10:05:28.442Z,69.37
2022-11-17T10:08:03.513Z,71.15
2022-11-17T10:10:36.186Z,71.78
2022-11-17T10:13:06.187Z,68.23
2022-11-17T10:15:47.287Z,65.57
2022-11-17T10:18:16.507Z,63.13
2022-11-17T10:20:45.220Z,54.27
2022-11-17T10:23:19.005Z,53.95
2022-11-17T10:25:48.517Z,53.50
2022-11-17T10:28:32.410Z,57.24
2022-11-17T10:31:17.845Z,59.57
2022-11-17T10:33:48.774Z,62.98
2022-11-17T10:36:23.701Z,62.07
2022-11-17T10:38:59.229Z,64.80
2022-11-17T10:41:41.285Z,67.03
2022-11-17T10:44:29.781Z,66.61
2022-11-17T10:47:04.143Z,66.43
2022-11-17T10:49:33.776Z,66.18
2022-11-17T10:52:16.712Z,66.65
2022-11-17T10:54:44.804Z,65.16
2022-11-17T10:57:20.090Z,65.12
2022-11-17T10:59:57.666Z,64.44
2022-11-17T11:02:36.455Z,65.12
2022-11-17T11:05:12.946Z,64.51
2022-11-17T11:07:41.162Z,63.37
2022-11-17T11:10:18.822Z,62.05
2022-11-17T11:12:52.684Z,60.44
2022-11-17T11:15:24.609Z,56.42
2022-11-17T11:17:52.507Z,57.67
2022-11-17T11:20:39.554Z,58.41
2022-11-17T11:23:20.875Z,57.48
2022-11-17T11:26:02.135Z,58.57
2022-11-17T11:28:46.359Z,59.44
2022-11-17T11:31:41.987Z,59.40
2022-11-17T11:34:36.709Z,60.87
2022-11-17T11:37:12.426Z,60.73
2022-11-17T11:39:59.208Z,61.77
2022-11-17T11:42:46.479Z,62.55
2022-11-17T11:45:36.667Z,61.37
2022-11-17T11:48:09.119Z,62.26
2022-11-17T11:50:47.418Z,62.58
2022-11-17T11:53:20.622Z,61.58
2022-11-17T11:55:50.251Z,61.13
2022-11-17T11:58:24.728Z,61.02
2022-11-17T12:01:12.220Z,62.13
2022-11-17T12:03:58.216Z,61.03
2022-11-17T12:06:43.922Z,57.83
2022-11-17T12:09:32.480Z,57.62
2022-11-17T12:12:06.514Z,54.82
2022-11-17T12:14:36.794Z,51.49
2022-11-17T12:17:24.217Z,53.98
2022-11-17T12:20:09.294Z,54.21
2022-11-17T12:22:56.584Z,54.39
2022-11-17T12:25:30.392Z,55.91
2022-11-17T12:27:58.100Z,55.90
2022-11-17T12:30:34.769Z,55.97
2022-11-17T12:33:06.843Z,56.64
2022-11-17T12:35:36.255Z,51.75
2022-11-17T12:38:15.618Z,48.52
2022-11-17T12:40:52.603Z,45.02
2022-11-17T12:43:27.790Z,36.73
2022-11-17T12:45:58.276Z,40.34
2022-11-17T12:48:35.124Z,37.05
2022-11-17T12:51:18.017Z,39.10
2022-11-17T12:54:16.128Z,41.36
2022-11-17T12:57:26.453Z,40.88
2022-11-17T13:00:22.165Z,39.59
2022-11-17T13:02:56.130Z,40.24
2022-11-17T13:05:24.996Z,39.88
2022-11-17T13:08:10.852Z,41.04
2022-11-17T13:10:38.422Z,43.42
2022-11-17T13:13:24.052Z,41.26
2022-11-17T13:15:54.655Z,42.35
2022-11-17T13:18:32.204Z,39.47
2022-11-17T13:21:00.974Z,38.82
2022-11-17T13:23:31.587Z,38.22
2022-11-17T13:26:10.633Z,41.99
2022-11-17T13:28:38.297Z,47.11
2022-11-17T13:31:06.591Z,49.66
2022-11-17T13:33:40.019Z,52.89
2022-11-17T13:36:19.841Z,54.26
2022-11-17T13:38:51.963Z,55.63
2022-11-17T13:41:21.856Z,57.33
2022-11-17T13:43:51.259Z,58.42
2022-11-17T13:46:19.107Z,59.75
2022-11-17T13:48:49.154Z,60.22
2022-11-17T13:51:19.734Z,60.42
2022-11-17T13:53:52.599Z,59.54
2022-11-17T13:56:46.179Z,61.15
2022-11-17T13:59:26.524Z,61.85
2022-11-17T14:02:29.938Z,63.65
2022-11-17T14:05:16.792Z,62.11
2022-11-17T14:07:45.386Z,60.65
2022-11-17T14:10:13.367Z,61.82
2022-11-17T14:12:44.747Z,63.92
2022-11-17T14:15:20.967Z,63.86
2022-11-17T14:17:50.893Z,66.00
2022-11-17T14:20:24.415Z,62.71
2022-11-17T14:23:08.829Z,64.47
2022-11-17T14:25:53.190Z,64.36
2022-11-17T14:28:25.497Z,66.23
2022-11-17T14:30:54.760Z,65.17
2022-11-17T14:33:23.074Z,64.96
2022-11-17T14:35:57.063Z,65.85
2022-11-17T14:38:25.339Z,65.91
2022-11-17T14:40:53.771Z,66.87
2022-11-17T14:43:22.530Z,67.90
2022-11-17T14:45:50.913Z,67.63
2022-11-17T14:48:19.694Z,66.56
2022-11-17T14:50:47.824Z,67.53
2022-11-17T14:53:15.599Z,66.71
2022-11-17T14:55:43.064Z,67.56
2022-11-17T14:58:10.649Z,68.43
2022-11-17T15:00:38.160Z,67.98
2022-11-17T15:03:05.689Z,69.22
2022-11-17T15:05:33.684Z,68.25
2022-11-17T15:08:01.243Z,68.42
2022-11-17T15:10:28.752Z,68.45
2022-11-17T15:12:56.348Z,68.65
2022-11-17T15:15:23.823Z,69.01
2022-11-17T15:17:51.377Z,69.36
2022-11-17T15:20:19.041Z,69.69
2022-11-17T15:22:46.506Z,71.65
2022-11-17T15:25:14.095Z,72.58
2022-11-17T15:27:41.560Z,72.43
2022-11-17T15:30:09.436Z,73.47
2022-11-17T15:32:37.246Z,73.30
2022-11-17T15:35:05.322Z,74.23
2022-11-17T15:37:32.838Z,74.12
2022-11-17T15:40:00.646Z,74.05
2022-11-17T15:42:28.158Z,73.89
2022-11-17T15:44:55.707Z,73.95
2022-11-17T15:47:23.685Z,73.46
2022-11-17T15:49:58.436Z,72.92
2022-11-17T15:52:48.787Z,72.56
2022-11-17T15:55:13.721Z,72.39
2022-11-17T15:57:41.299Z,72.30
2022-11-17T16:00:09.940Z,72.54
2022-11-17T16:02:37.446Z,71.96
2022-11-17T16:05:05.495Z,72.08
2022-11-17T16:07:33.143Z,72.63
2022-11-17T16:10:00.857Z,74.05
2022-11-17T16:12:28.361Z,74.13
2022-11-17T16:14:55.888Z,73.41
2022-11-17T16:17:23.409Z,74.60
2022-11-17T16:19:51.684Z,73.81
2022-11-17T16:22:19.273Z,73.12
2022-11-17T16:24:46.738Z,73.38
2022-11-17T16:27:14.333Z,73.73
2022-11-17T16:29:41.867Z,72.85
2022-11-17T16:32:09.499Z,73.93
2022-11-17T16:34:38.527Z,74.55
2022-11-17T16:37:06.011Z,73.86
2022-11-17T16:39:33.784Z,73.66
2022-11-17T16:42:01.648Z,74.08
2022-11-17T16:44:29.179Z,73.96
2022-11-17T16:46:56.989Z,73.81
2022-11-17T16:49:24.770Z,73.33
2022-11-17T16:51:56.729Z,73.28
2022-11-17T16:54:24.162Z,73.17
2022-11-17T16:56:51.740Z,74.22
2022-11-17T16:59:19.761Z,73.19
2022-11-17T17:01:47.722Z,73.19
2022-11-17T17:04:23.511Z,73.22
2022-11-17T17:06:51.528Z,73.13
2022-11-17T17:09:24.749Z,73.36
2022-11-17T17:11:55.306Z,73.09
2022-11-17T17:14:22.946Z,73.51
2022-11-17T17:16:51.168Z,73.87
2022-11-17T17:19:19.155Z,75.00
2022-11-17T17:21:46.819Z,75.45
2022-11-17T17:24:14.652Z,73.90
2022-11-17T17:26:42.542Z,74.38
2022-11-17T17:29:10.632Z,74.50
2022-11-17T17:31:40.486Z,75.53
2022-11-17T17:34:11.525Z,74.55
2022-11-17T17:36:40.017Z,74.17
2022-11-17T17:39:08.109Z,74.00
2022-11-17T17:41:40.981Z,75.75
2022-11-17T17:44:13.290Z,74.54
2022-11-17T17:46:42.913Z,75.91
2022-11-17T17:49:11.898Z,74.53
2022-11-17T17:51:44.054Z,75.88
2022-11-17T17:54:19.876Z,75.43
2022-11-17T17:56:48.252Z,76.05
2022-11-17T17:59:17.080Z,75.70
2022-11-17T18:01:46.329Z,75.63
2022-11-17T18:04:16.223Z,75.73
2022-11-17T18:06:48.826Z,75.78
2022-11-17T18:09:19.390Z,76.42
2022-11-17T18:11:50.344Z,76.40
2022-11-17T18:14:29.094Z,75.98
2022-11-17T18:16:56.882Z,75.96
2022-11-17T18:19:31.371Z,75.75
2022-11-17T18:22:01.256Z,76.39
2022-11-17T18:24:29.029Z,76.80
2022-11-17T18:26:56.843Z,76.46
2022-11-17T18:29:24.970Z,76.46
2022-11-17T18:31:52.506Z,77.99
2022-11-17T18:34:22.927Z,77.75
2022-11-17T18:36:52.362Z,77.14
2022-11-17T18:39:21.396Z,76.52
2022-11-17T18:41:52.267Z,77.97
2022-11-17T18:44:20.070Z,77.14
2022-11-17T18:46:48.470Z,78.29
2022-11-17T18:49:16.804Z,77.43
2022-11-17T18:51:44.848Z,77.47
2022-11-17T18:54:13.095Z,78.46
2022-11-17T18:56:41.045Z,77.98
2022-11-17T18:59:11.934Z,78.33
2022-11-17T19:01:41.760Z,77.61
2022-11-17T19:04:11.725Z,77.12
2022-11-17T19:06:39.609Z,78.04
2022-11-17T19:09:08.258Z,78.45
2022-11-17T19:11:36.016Z,78.89
2022-11-17T19:14:07.007Z,78.19
2022-11-17T19:16:41.030Z,78.45
2022-11-17T19:19:13.463Z,78.87
2022-11-17T19:21:42.203Z,78.43
2022-11-17T19:24:09.908Z,79.32
2022-11-17T19:26:37.728Z,79.58
2022-11-17T19:29:15.668Z,78.58
2022-11-17T19:31:47.625Z,79.14
2022-11-17T19:34:16.089Z,78.80
2022-11-17T19:36:45.282Z,78.75
2022-11-17T19:39:14.165Z,79.08
2022-11-17T19:41:43.708Z,78.96
2022-11-17T19:44:11.488Z,78.95
2022-11-17T19:46:39.405Z,78.91
2022-11-17T19:49:08.084Z,78.99
2022-11-17T19:51:37.244Z,79.33
2022-11-17T19:54:07.863Z,78.74
2022-11-17T19:56:36.220Z,79.86
2022-11-17T19:59:05.078Z,79.47
2022-11-17T20:01:33.886Z,78.81
2022-11-17T20:04:01.744Z,78.77
2022-11-17T20:06:35.361Z,78.76
2022-11-17T20:09:08.747Z,78.68
2022-11-17T20:11:36.995Z,79.09
2022-11-17T20:14:07.315Z,80.35
2022-11-17T20:16:36.787Z,80.35
2022-11-17T20:19:05.016Z,80.01
2022-11-17T20:21:33.615Z,79.54
2022-11-17T20:24:02.142Z,79.88
2022-11-17T20:26:32.050Z,80.33
2022-11-17T20:29:05.327Z,79.95
2022-11-17T20:31:35.560Z,80.35
2022-11-17T20:34:05.484Z,80.29
2022-11-17T20:36:34.417Z,80.62
2022-11-17T20:39:05.967Z,80.42
2022-11-17T20:41:33.847Z,80.52
2022-11-17T20:44:03.188Z,80.57
2022-11-17T20:46:31.217Z,80.54
2022-11-17T20:48:59.038Z,80.71
2022-11-17T20:51:27.066Z,80.84
2022-11-17T20:53:55.613Z,80.38
2022-11-17T20:56:23.335Z,80.88
2022-11-17T20:58:50.927Z,82.32
2022-11-17T21:01:21.281Z,80.79
2022-11-17T21:03:49.654Z,80.27
2022-11-17T21:06:18.195Z,80.55
2022-11-17T21:08:46.167Z,80.59
2022-11-17T21:11:36.693Z,81.33
2022-11-17T21:14:07.488Z,80.89
2022-11-17T21:16:37.300Z,81.57
2022-11-17T21:19:04.996Z,81.17
2022-11-17T21:21:32.749Z,81.43
2022-11-17T21:24:00.672Z,82.39
2022-11-17T21:26:28.507Z,81.65
2022-11-17T21:28:59.372Z,81.14
2022-11-17T21:31:31.985Z,81.17
2022-11-17T21:34:02.249Z,80.86
2022-11-17T21:36:31.489Z,80.78
2022-11-17T21:38:59.883Z,80.74
2022-11-17T21:41:35.363Z,81.10
2022-11-17T21:44:03.935Z,82.14
2022-11-17T21:46:33.569Z,82.93
2022-11-17T21:49:01.627Z,83.15
2022-11-17T21:51:34.593Z,82.64
2022-11-17T21:54:04.480Z,82.28
2022-11-17T21:56:32.681Z,81.80
2022-11-17T21:59:06.021Z,81.41
2022-11-17T22:01:35.351Z,82.02
2022-11-17T22:04:03.007Z,81.74
2022-11-17T22:06:30.789Z,81.20
2022-11-17T22:08:59.655Z,81.75
2022-11-17T22:11:36.147Z,81.38
2022-11-17T22:14:06.601Z,82.13
2022-11-17T22:16:36.191Z,82.03
2022-11-17T22:19:04.529Z,81.41
2022-11-17T22:21:32.166Z,81.38
2022-11-17T22:23:59.884Z,81.30
2022-11-17T22:26:27.431Z,81.36
2022-11-17T22:28:56.171Z,81.87
2022-11-17T22:31:24.270Z,81.78
2022-11-17T22:33:52.011Z,82.17
2022-11-17T22:36:20.021Z,81.95
2022-11-17T22:38:51.335Z,81.90
2022-11-17T22:41:20.872Z,82.14
2022-11-17T22:43:56.267Z,81.94
2022-11-17T22:46:28.507Z,83.21
2022-11-17T22:48:56.843Z,82.43
2022-11-17T22:51:43.734Z,81.50
2022-11-17T22:54:11.452Z,81.74
2022-11-17T22:56:39.338Z,82.31
2022-11-17T22:59:07.740Z,81.85
2022-11-17T23:01:35.303Z,81.66
2022-11-17T23:04:02.966Z,82.01
2022-11-17T23:06:30.489Z,81.92
2022-11-17T23:08:58.359Z,81.27
2022-11-17T23:11:41.836Z,82.33
2022-11-17T23:14:12.386Z,81.84
2022-11-17T23:16:39.963Z,81.62
2022-11-17T23:19:11.188Z,81.88
2022-11-17T23:21:38.670Z,81.36
2022-11-17T23:24:06.687Z,81.27
2022-11-17T23:26:34.126Z,81.63
2022-11-17T23:29:01.714Z,82.01
2022-11-17T23:31:29.497Z,83.00
2022-11-17T23:33:57.091Z,82.38
2022-11-17T23:36:24.979Z,81.59
2022-11-17T23:38:55.294Z,82.26
2022-11-17T23:41:23.057Z,82.38
2022-11-17T23:43:52.575Z,82.19
2022-11-17T23:46:23.043Z,82.01
2022-11-17T23:48:50.633Z,81.20
2022-11-17T23:51:24.328Z,82.22
2022-11-17T23:53:52.879Z,81.90
2022-11-17T23:56:20.859Z,81.85
2022-11-17T23:58:48.783Z,81.57
